sensor_id;sensor_type;location;lat;lon;timestamp;P1;durP1;ratioP1;P2;durP2;ratioP2
21148;SDS011;10732;51.472;6.466;2022-10-04T00:01:52;11.60;;;6.78;;
21148;SDS011;10732;51.472;6.466;2022-10-04T00:04:26;10.20;;;6.82;;
21148;SDS011;10732;51.472;6.466;2022-10-04T00:06:58;10.57;;;6.72;;
21148;SDS011;10732;51.472;6.466;2022-10-04T00:09:46;11.32;;;6.70;;
21148;SDS011;10732;51.472;6.466;2022-10-04T00:12:17;13.02;;;6.60;;
21148;SDS011;10732;51.472;6.466;2022-10-04T00:14:48;13.98;;;7.65;;
21148;SDS011;10732;51.472;6.466;2022-10-04T00:17:19;14.95;;;7.65;;
21148;SDS011;10732;51.472;6.466;2022-10-04T00:19:51;11.02;;;7.10;;
21148;SDS011;10732;51.472;6.466;2022-10-04T00:22:25;11.50;;;7.20;;
21148;SDS011;10732;51.472;6.466;2022-10-04T00:27:33;10.77;;;7.35;;
21148;SDS011;10732;51.472;6.466;2022-10-04T00:37:54;17.45;;;7.68;;
21148;SDS011;10732;51.472;6.466;2022-10-04T00:40:33;11.40;;;7.20;;
21148;SDS011;10732;51.472;6.466;2022-10-04T00:43:06;13.02;;;7.30;;
21148;SDS011;10732;51.472;6.466;2022-10-04T00:45:45;10.18;;;7.82;;
21148;SDS011;10732;51.472;6.466;2022-10-04T00:51:01;13.10;;;7.72;;
21148;SDS011;10732;51.472;6.466;2022-10-04T01:04:50;10.65;;;8.38;;
21148;SDS011;10732;51.472;6.466;2022-10-04T01:07:25;11.57;;;7.45;;
21148;SDS011;10732;51.472;6.466;2022-10-04T01:10:03;11.05;;;8.18;;
21148;SDS011;10732;51.472;6.466;2022-10-04T01:20:46;12.30;;;7.32;;
21148;SDS011;10732;51.472;6.466;2022-10-04T01:25:59;13.98;;;7.20;;
21148;SDS011;10732;51.472;6.466;2022-10-04T01:28:25;12.60;;;8.25;;
21148;SDS011;10732;51.472;6.466;2022-10-04T01:30:51;12.93;;;7.38;;
21148;SDS011;10732;51.472;6.466;2022-10-04T01:33:17;10.95;;;7.82;;
21148;SDS011;10732;51.472;6.466;2022-10-04T01:35:43;11.40;;;7.68;;
21148;SDS011;10732;51.472;6.466;2022-10-04T01:38:09;12.02;;;7.43;;
21148;SDS011;10732;51.472;6.466;2022-10-04T01:40:38;12.65;;;7.57;;
21148;SDS011;10732;51.472;6.466;2022-10-04T01:43:19;10.75;;;7.72;;
21148;SDS011;10732;51.472;6.466;2022-10-04T01:45:59;12.15;;;7.65;;
21148;SDS011;10732;51.472;6.466;2022-10-04T01:48:35;11.82;;;8.18;;
21148;SDS011;10732;51.472;6.466;2022-10-04T01:51:04;13.52;;;8.60;;
21148;SDS011;10732;51.472;6.466;2022-10-04T01:53:46;15.05;;;8.40;;
21148;SDS011;10732;51.472;6.466;2022-10-04T01:56:19;13.07;;;8.23;;
21148;SDS011;10732;51.472;6.466;2022-10-04T01:58:50;13.68;;;8.25;;
21148;SDS011;10732;51.472;6.466;2022-10-04T02:01:28;14.50;;;8.50;;
21148;SDS011;10732;51.472;6.466;2022-10-04T02:04:01;12.88;;;9.63;;
21148;SDS011;10732;51.472;6.466;2022-10-04T02:06:40;17.08;;;9.15;;
21148;SDS011;10732;51.472;6.466;2022-10-04T02:09:11;11.82;;;8.45;;
21148;SDS011;10732;51.472;6.466;2022-10-04T02:11:39;14.60;;;8.93;;
21148;SDS011;10732;51.472;6.466;2022-10-04T02:14:11;15.07;;;8.77;;
21148;SDS011;10732;51.472;6.466;2022-10-04T02:16:40;12.43;;;8.27;;
21148;SDS011;10732;51.472;6.466;2022-10-04T02:19:09;15.15;;;8.88;;
21148;SDS011;10732;51.472;6.466;2022-10-04T02:21:35;13.63;;;8.70;;
21148;SDS011;10732;51.472;6.466;2022-10-04T02:24:02;19.65;;;9.30;;
21148;SDS011;10732;51.472;6.466;2022-10-04T02:26:29;16.65;;;9.55;;
21148;SDS011;10732;51.472;6.466;2022-10-04T02:28:55;13.80;;;9.10;;
21148;SDS011;10732;51.472;6.466;2022-10-04T02:31:20;13.43;;;8.70;;
21148;SDS011;10732;51.472;6.466;2022-10-04T02:34:06;19.52;;;9.57;;
21148;SDS011;10732;51.472;6.466;2022-10-04T02:36:32;19.33;;;10.15;;
21148;SDS011;10732;51.472;6.466;2022-10-04T02:39:04;16.80;;;9.32;;
21148;SDS011;10732;51.472;6.466;2022-10-04T02:41:55;16.67;;;8.57;;
21148;SDS011;10732;51.472;6.466;2022-10-04T02:44:31;13.65;;;8.02;;
21148;SDS011;10732;51.472;6.466;2022-10-04T02:47:18;18.52;;;8.55;;
21148;SDS011;10732;51.472;6.466;2022-10-04T02:55:00;14.13;;;8.10;;
21148;SDS011;10732;51.472;6.466;2022-10-04T02:57:33;16.77;;;8.50;;
21148;SDS011;10732;51.472;6.466;2022-10-04T03:00:12;16.80;;;7.38;;
21148;SDS011;10732;51.472;6.466;2022-10-04T03:06:07;14.60;;;8.07;;
21148;SDS011;10732;51.472;6.466;2022-10-04T03:11:07;11.82;;;7.93;;
21148;SDS011;10732;51.472;6.466;2022-10-04T03:13:35;10.68;;;7.40;;
21148;SDS011;10732;51.472;6.466;2022-10-04T03:16:02;13.00;;;7.57;;
21148;SDS011;10732;51.472;6.466;2022-10-04T03:18:29;13.93;;;7.78;;
21148;SDS011;10732;51.472;6.466;2022-10-04T03:20:56;12.80;;;7.93;;
21148;SDS011;10732;51.472;6.466;2022-10-04T03:23:26;12.27;;;7.65;;
21148;SDS011;10732;51.472;6.466;2022-10-04T03:26:09;15.98;;;8.10;;
21148;SDS011;10732;51.472;6.466;2022-10-04T03:28:54;18.10;;;8.35;;
21148;SDS011;10732;51.472;6.466;2022-10-04T03:31:21;13.93;;;8.18;;
21148;SDS011;10732;51.472;6.466;2022-10-04T03:33:47;11.30;;;7.88;;
21148;SDS011;10732;51.472;6.466;2022-10-04T03:36:14;12.02;;;8.18;;
21148;SDS011;10732;51.472;6.466;2022-10-04T03:38:43;16.15;;;8.50;;
21148;SDS011;10732;51.472;6.466;2022-10-04T03:41:10;14.77;;;8.57;;
21148;SDS011;10732;51.472;6.466;2022-10-04T03:43:39;16.88;;;8.55;;
21148;SDS011;10732;51.472;6.466;2022-10-04T03:46:08;15.25;;;11.60;;
21148;SDS011;10732;51.472;6.466;2022-10-04T03:48:35;16.65;;;10.48;;
21148;SDS011;10732;51.472;6.466;2022-10-04T03:51:05;22.27;;;10.32;;
21148;SDS011;10732;51.472;6.466;2022-10-04T03:53:36;15.38;;;9.15;;
21148;SDS011;10732;51.472;6.466;2022-10-04T03:56:11;13.35;;;9.40;;
21148;SDS011;10732;51.472;6.466;2022-10-04T03:58:41;18.58;;;9.35;;
21148;SDS011;10732;51.472;6.466;2022-10-04T04:09:37;15.73;;;8.68;;
21148;SDS011;10732;51.472;6.466;2022-10-04T04:12:21;17.45;;;9.75;;
21148;SDS011;10732;51.472;6.466;2022-10-04T04:14:51;17.55;;;8.90;;
21148;SDS011;10732;51.472;6.466;2022-10-04T04:17:37;16.98;;;9.10;;
21148;SDS011;10732;51.472;6.466;2022-10-04T04:20:06;13.82;;;8.70;;
21148;SDS011;10732;51.472;6.466;2022-10-04T04:23:11;15.05;;;8.75;;
21148;SDS011;10732;51.472;6.466;2022-10-04T04:25:48;14.60;;;9.10;;
21148;SDS011;10732;51.472;6.466;2022-10-04T04:31:02;19.52;;;10.45;;
21148;SDS011;10732;51.472;6.466;2022-10-04T04:33:31;16.15;;;10.05;;
21148;SDS011;10732;51.472;6.466;2022-10-04T04:36:05;20.08;;;11.02;;
21148;SDS011;10732;51.472;6.466;2022-10-04T04:38:35;18.63;;;11.52;;
21148;SDS011;10732;51.472;6.466;2022-10-04T04:41:20;19.85;;;11.32;;
21148;SDS011;10732;51.472;6.466;2022-10-04T04:43:47;20.05;;;11.40;;
21148;SDS011;10732;51.472;6.466;2022-10-04T04:46:14;20.42;;;10.88;;
21148;SDS011;10732;51.472;6.466;2022-10-04T04:48:42;21.13;;;11.10;;
21148;SDS011;10732;51.472;6.466;2022-10-04T04:51:11;20.20;;;11.63;;
21148;SDS011;10732;51.472;6.466;2022-10-04T04:53:44;21.13;;;11.48;;
21148;SDS011;10732;51.472;6.466;2022-10-04T04:56:11;17.00;;;11.15;;
21148;SDS011;10732;51.472;6.466;2022-10-04T04:58:43;17.92;;;13.13;;
21148;SDS011;10732;51.472;6.466;2022-10-04T05:01:30;17.40;;;11.20;;
21148;SDS011;10732;51.472;6.466;2022-10-04T05:04:13;21.75;;;12.20;;
21148;SDS011;10732;51.472;6.466;2022-10-04T05:07:11;19.33;;;11.30;;
21148;SDS011;10732;51.472;6.466;2022-10-04T05:09:38;21.65;;;11.60;;
21148;SDS011;10732;51.472;6.466;2022-10-04T05:12:09;17.33;;;11.45;;
21148;SDS011;10732;51.472;6.466;2022-10-04T05:14:46;15.40;;;10.68;;
21148;SDS011;10732;51.472;6.466;2022-10-04T05:17:20;17.25;;;12.07;;
21148;SDS011;10732;51.472;6.466;2022-10-04T05:19:51;19.40;;;12.10;;
21148;SDS011;10732;51.472;6.466;2022-10-04T05:22:22;23.95;;;13.25;;
21148;SDS011;10732;51.472;6.466;2022-10-04T05:24:53;23.48;;;12.90;;
21148;SDS011;10732;51.472;6.466;2022-10-04T05:27:34;18.50;;;12.77;;
21148;SDS011;10732;51.472;6.466;2022-10-04T05:32:39;21.23;;;12.65;;
21148;SDS011;10732;51.472;6.466;2022-10-04T05:35:15;20.73;;;12.60;;
21148;SDS011;10732;51.472;6.466;2022-10-04T05:37:54;27.80;;;13.32;;
21148;SDS011;10732;51.472;6.466;2022-10-04T05:46:14;26.63;;;16.65;;
21148;SDS011;10732;51.472;6.466;2022-10-04T05:48:41;29.50;;;18.65;;
21148;SDS011;10732;51.472;6.466;2022-10-04T05:51:51;32.28;;;20.77;;
21148;SDS011;10732;51.472;6.466;2022-10-04T05:54:11;31.15;;;18.80;;
21148;SDS011;10732;51.472;6.466;2022-10-04T05:59:27;25.20;;;16.23;;
21148;SDS011;10732;51.472;6.466;2022-10-04T06:02:21;26.65;;;14.07;;
21148;SDS011;10732;51.472;6.466;2022-10-04T06:05:52;19.98;;;13.50;;
21148;SDS011;10732;51.472;6.466;2022-10-04T06:08:04;22.25;;;13.48;;
21148;SDS011;10732;51.472;6.466;2022-10-04T06:13:52;19.20;;;12.90;;
21148;SDS011;10732;51.472;6.466;2022-10-04T06:22:21;19.25;;;11.50;;
21148;SDS011;10732;51.472;6.466;2022-10-04T06:24:48;17.50;;;10.52;;
21148;SDS011;10732;51.472;6.466;2022-10-04T06:27:26;19.58;;;10.27;;
21148;SDS011;10732;51.472;6.466;2022-10-04T06:29:57;14.65;;;9.57;;
21148;SDS011;10732;51.472;6.466;2022-10-04T06:40:37;17.63;;;9.13;;
21148;SDS011;10732;51.472;6.466;2022-10-04T06:49:49;17.67;;;8.82;;
21148;SDS011;10732;51.472;6.466;2022-10-04T06:52:51;15.70;;;8.20;;
21148;SDS011;10732;51.472;6.466;2022-10-04T07:10:13;16.00;;;6.85;;
21148;SDS011;10732;51.472;6.466;2022-10-04T07:15:55;13.63;;;6.45;;
21148;SDS011;10732;51.472;6.466;2022-10-04T07:18:33;13.50;;;6.10;;
21148;SDS011;10732;51.472;6.466;2022-10-04T07:21:17;9.85;;;6.05;;
21148;SDS011;10732;51.472;6.466;2022-10-04T07:23:51;12.00;;;6.57;;
21148;SDS011;10732;51.472;6.466;2022-10-04T07:26:33;9.82;;;6.85;;
21148;SDS011;10732;51.472;6.466;2022-10-04T07:29:14;14.57;;;7.03;;
21148;SDS011;10732;51.472;6.466;2022-10-04T07:37:11;9.18;;;6.07;;
21148;SDS011;10732;51.472;6.466;2022-10-04T07:39:50;16.70;;;7.30;;
21148;SDS011;10732;51.472;6.466;2022-10-04T07:42:55;11.75;;;7.32;;
21148;SDS011;10732;51.472;6.466;2022-10-04T07:45:27;12.88;;;6.43;;
21148;SDS011;10732;51.472;6.466;2022-10-04T07:48:15;12.13;;;6.20;;
21148;SDS011;10732;51.472;6.466;2022-10-04T07:53:52;7.68;;;4.70;;
21148;SDS011;10732;51.472;6.466;2022-10-04T07:56:33;9.25;;;5.32;;
21148;SDS011;10732;51.472;6.466;2022-10-04T08:07:29;10.05;;;4.90;;
21148;SDS011;10732;51.472;6.466;2022-10-04T08:10:28;5.95;;;4.78;;
21148;SDS011;10732;51.472;6.466;2022-10-04T08:13:25;7.68;;;4.82;;
21148;SDS011;10732;51.472;6.466;2022-10-04T08:15:51;8.60;;;4.70;;
21148;SDS011;10732;51.472;6.466;2022-10-04T08:18:32;8.82;;;4.45;;
21148;SDS011;10732;51.472;6.466;2022-10-04T08:21:18;10.07;;;4.47;;
21148;SDS011;10732;51.472;6.466;2022-10-04T08:37:49;10.05;;;4.75;;
21148;SDS011;10732;51.472;6.466;2022-10-04T08:40:57;8.05;;;4.38;;
21148;SDS011;10732;51.472;6.466;2022-10-04T08:52:32;6.15;;;4.18;;
21148;SDS011;10732;51.472;6.466;2022-10-04T09:12:30;10.07;;;4.38;;
21148;SDS011;10732;51.472;6.466;2022-10-04T09:15:22;6.22;;;3.50;;
21148;SDS011;10732;51.472;6.466;2022-10-04T09:34:58;6.07;;;3.80;;
21148;SDS011;10732;51.472;6.466;2022-10-04T09:37:23;9.60;;;4.07;;
21148;SDS011;10732;51.472;6.466;2022-10-04T09:48:49;8.85;;;4.20;;
21148;SDS011;10732;51.472;6.466;2022-10-04T10:00:21;5.85;;;4.10;;
21148;SDS011;10732;51.472;6.466;2022-10-04T10:21:52;7.32;;;4.63;;
21148;SDS011;10732;51.472;6.466;2022-10-04T10:35:15;6.72;;;4.15;;
21148;SDS011;10732;51.472;6.466;2022-10-04T10:38:18;6.88;;;3.95;;
21148;SDS011;10732;51.472;6.466;2022-10-04T10:43:31;6.88;;;3.80;;
21148;SDS011;10732;51.472;6.466;2022-10-04T10:51:56;8.00;;;4.25;;
21148;SDS011;10732;51.472;6.466;2022-10-04T11:14:29;6.85;;;4.20;;
21148;SDS011;10732;51.472;6.466;2022-10-04T11:25:58;7.20;;;3.95;;
21148;SDS011;10732;51.472;6.466;2022-10-04T11:46:02;7.47;;;4.63;;
21148;SDS011;10732;51.472;6.466;2022-10-04T12:02:05;9.85;;;5.05;;
21148;SDS011;10732;51.472;6.466;2022-10-04T12:05:02;8.60;;;4.68;;
21148;SDS011;10732;51.472;6.466;2022-10-04T12:07:41;9.07;;;4.90;;
21148;SDS011;10732;51.472;6.466;2022-10-04T12:10:28;10.57;;;5.18;;
21148;SDS011;10732;51.472;6.466;2022-10-04T12:13:18;8.73;;;4.70;;
21148;SDS011;10732;51.472;6.466;2022-10-04T12:24:46;7.75;;;3.95;;
21148;SDS011;10732;51.472;6.466;2022-10-04T12:30:13;10.25;;;4.78;;
21148;SDS011;10732;51.472;6.466;2022-10-04T12:32:49;7.68;;;4.38;;
21148;SDS011;10732;51.472;6.466;2022-10-04T12:41:10;7.25;;;2.95;;
21148;SDS011;10732;51.472;6.466;2022-10-04T12:49:40;5.57;;;2.97;;
21148;SDS011;10732;51.472;6.466;2022-10-04T12:52:15;8.38;;;3.60;;
21148;SDS011;10732;51.472;6.466;2022-10-04T12:54:53;5.75;;;3.15;;
21148;SDS011;10732;51.472;6.466;2022-10-04T13:00:17;5.15;;;3.20;;
21148;SDS011;10732;51.472;6.466;2022-10-04T13:14:38;4.97;;;2.83;;
21148;SDS011;10732;51.472;6.466;2022-10-04T13:16:52;5.28;;;2.85;;
21148;SDS011;10732;51.472;6.466;2022-10-04T13:19:45;5.60;;;3.08;;
21148;SDS011;10732;51.472;6.466;2022-10-04T13:25:08;6.40;;;3.28;;
21148;SDS011;10732;51.472;6.466;2022-10-04T13:27:58;6.43;;;2.95;;
21148;SDS011;10732;51.472;6.466;2022-10-04T13:30:48;6.18;;;2.70;;
21148;SDS011;10732;51.472;6.466;2022-10-04T13:33:28;5.70;;;2.67;;
21148;SDS011;10732;51.472;6.466;2022-10-04T13:39:16;7.97;;;2.55;;
21148;SDS011;10732;51.472;6.466;2022-10-04T13:44:44;5.70;;;2.20;;
21148;SDS011;10732;51.472;6.466;2022-10-04T13:50:43;3.83;;;2.30;;
21148;SDS011;10732;51.472;6.466;2022-10-04T13:53:40;6.32;;;2.05;;
21148;SDS011;10732;51.472;6.466;2022-10-04T14:10:42;4.15;;;2.28;;
21148;SDS011;10732;51.472;6.466;2022-10-04T14:35:02;7.95;;;2.20;;
21148;SDS011;10732;51.472;6.466;2022-10-04T14:51:19;4.03;;;2.20;;
21148;SDS011;10732;51.472;6.466;2022-10-04T15:04:58;4.47;;;2.40;;
21148;SDS011;10732;51.472;6.466;2022-10-04T15:07:47;3.63;;;2.33;;
21148;SDS011;10732;51.472;6.466;2022-10-04T15:13:19;6.78;;;2.40;;
21148;SDS011;10732;51.472;6.466;2022-10-04T15:15:58;6.03;;;2.60;;
21148;SDS011;10732;51.472;6.466;2022-10-04T15:26:49;6.13;;;2.65;;
21148;SDS011;10732;51.472;6.466;2022-10-04T15:37:59;7.78;;;2.90;;
21148;SDS011;10732;51.472;6.466;2022-10-04T15:40:57;3.80;;;2.72;;
21148;SDS011;10732;51.472;6.466;2022-10-04T15:43:40;6.72;;;2.80;;
21148;SDS011;10732;51.472;6.466;2022-10-04T15:46:24;5.65;;;2.72;;
21148;SDS011;10732;51.472;6.466;2022-10-04T15:51:43;5.93;;;2.90;;
21148;SDS011;10732;51.472;6.466;2022-10-04T15:59:55;7.72;;;3.00;;
21148;SDS011;10732;51.472;6.466;2022-10-04T16:10:55;7.60;;;3.28;;
21148;SDS011;10732;51.472;6.466;2022-10-04T16:16:18;6.10;;;3.00;;
21148;SDS011;10732;51.472;6.466;2022-10-04T16:24:40;9.35;;;3.33;;
21148;SDS011;10732;51.472;6.466;2022-10-04T16:27:12;7.45;;;3.10;;
21148;SDS011;10732;51.472;6.466;2022-10-04T16:29:51;6.72;;;3.20;;
21148;SDS011;10732;51.472;6.466;2022-10-04T16:32:46;6.07;;;3.45;;
21148;SDS011;10732;51.472;6.466;2022-10-04T16:35:44;9.38;;;3.40;;
21148;SDS011;10732;51.472;6.466;2022-10-04T16:38:24;7.13;;;3.60;;
21148;SDS011;10732;51.472;6.466;2022-10-04T16:40:57;5.88;;;3.30;;
21148;SDS011;10732;51.472;6.466;2022-10-04T16:43:28;5.60;;;2.97;;
21148;SDS011;10732;51.472;6.466;2022-10-04T16:46:11;6.45;;;3.10;;
21148;SDS011;10732;51.472;6.466;2022-10-04T16:48:56;5.18;;;3.20;;
21148;SDS011;10732;51.472;6.466;2022-10-04T16:57:24;7.38;;;3.40;;
21148;SDS011;10732;51.472;6.466;2022-10-04T16:59:55;6.30;;;3.58;;
21148;SDS011;10732;51.472;6.466;2022-10-04T17:16:04;11.90;;;3.90;;
21148;SDS011;10732;51.472;6.466;2022-10-04T17:18:35;6.78;;;3.83;;
21148;SDS011;10732;51.472;6.466;2022-10-04T17:27:45;8.00;;;3.70;;
21148;SDS011;10732;51.472;6.466;2022-10-04T17:30:13;10.45;;;4.05;;
21148;SDS011;10732;51.472;6.466;2022-10-04T17:33:03;5.95;;;3.83;;
21148;SDS011;10732;51.472;6.466;2022-10-04T17:41:11;13.23;;;7.30;;
21148;SDS011;10732;51.472;6.466;2022-10-04T17:46:49;9.02;;;5.55;;
21148;SDS011;10732;51.472;6.466;2022-10-04T17:49:25;9.45;;;5.45;;
21148;SDS011;10732;51.472;6.466;2022-10-04T17:52:41;8.02;;;4.93;;
21148;SDS011;10732;51.472;6.466;2022-10-04T17:55:46;9.85;;;5.50;;
21148;SDS011;10732;51.472;6.466;2022-10-04T17:58:21;9.60;;;5.22;;
21148;SDS011;10732;51.472;6.466;2022-10-04T18:00:54;9.35;;;5.38;;
21148;SDS011;10732;51.472;6.466;2022-10-04T18:09:32;12.27;;;8.38;;
21148;SDS011;10732;51.472;6.466;2022-10-04T18:14:50;12.00;;;8.43;;
21148;SDS011;10732;51.472;6.466;2022-10-04T18:17:37;14.32;;;9.60;;
21148;SDS011;10732;51.472;6.466;2022-10-04T18:22:48;18.83;;;13.07;;
21148;SDS011;10732;51.472;6.466;2022-10-04T18:25:20;23.13;;;16.23;;
21148;SDS011;10732;51.472;6.466;2022-10-04T18:30:32;32.47;;;21.00;;
21148;SDS011;10732;51.472;6.466;2022-10-04T18:32:59;27.73;;;19.30;;
21148;SDS011;10732;51.472;6.466;2022-10-04T18:35:27;24.35;;;16.33;;
21148;SDS011;10732;51.472;6.466;2022-10-04T18:38:40;15.70;;;11.93;;
21148;SDS011;10732;51.472;6.466;2022-10-04T18:40:53;15.48;;;10.98;;
21148;SDS011;10732;51.472;6.466;2022-10-04T18:43:27;13.43;;;10.00;;
21148;SDS011;10732;51.472;6.466;2022-10-04T18:48:51;9.38;;;7.47;;
21148;SDS011;10732;51.472;6.466;2022-10-04T19:05:44;9.23;;;6.30;;
21148;SDS011;10732;51.472;6.466;2022-10-04T19:11:15;9.82;;;6.43;;
21148;SDS011;10732;51.472;6.466;2022-10-04T19:16:35;10.52;;;6.78;;
21148;SDS011;10732;51.472;6.466;2022-10-04T19:22:31;8.18;;;6.55;;
21148;SDS011;10732;51.472;6.466;2022-10-04T19:25:06;11.93;;;7.68;;
21148;SDS011;10732;51.472;6.466;2022-10-04T19:28:40;9.20;;;7.10;;
21148;SDS011;10732;51.472;6.466;2022-10-04T19:42:22;9.65;;;6.80;;
21148;SDS011;10732;51.472;6.466;2022-10-04T19:44:53;8.63;;;6.25;;
21148;SDS011;10732;51.472;6.466;2022-10-04T19:47:37;7.35;;;6.30;;
21148;SDS011;10732;51.472;6.466;2022-10-04T19:52:53;12.13;;;6.93;;
21148;SDS011;10732;51.472;6.466;2022-10-04T19:55:21;11.00;;;7.28;;
21148;SDS011;10732;51.472;6.466;2022-10-04T19:58:07;9.82;;;8.20;;
21148;SDS011;10732;51.472;6.466;2022-10-04T20:00:46;9.43;;;6.93;;
21148;SDS011;10732;51.472;6.466;2022-10-04T20:03:12;9.88;;;6.28;;
21148;SDS011;10732;51.472;6.466;2022-10-04T20:05:45;8.18;;;6.88;;
21148;SDS011;10732;51.472;6.466;2022-10-04T20:08:13;10.55;;;7.03;;
21148;SDS011;10732;51.472;6.466;2022-10-04T20:10:40;11.98;;;7.18;;
21148;SDS011;10732;51.472;6.466;2022-10-04T20:13:20;9.60;;;7.18;;
21148;SDS011;10732;51.472;6.466;2022-10-04T20:15:55;13.43;;;6.93;;
21148;SDS011;10732;51.472;6.466;2022-10-04T20:29:21;13.65;;;7.30;;
21148;SDS011;10732;51.472;6.466;2022-10-04T20:34:59;9.82;;;6.60;;
21148;SDS011;10732;51.472;6.466;2022-10-04T20:38:12;10.15;;;7.10;;
21148;SDS011;10732;51.472;6.466;2022-10-04T20:45:42;10.40;;;7.43;;
21148;SDS011;10732;51.472;6.466;2022-10-04T20:48:10;10.82;;;7.50;;
21148;SDS011;10732;51.472;6.466;2022-10-04T20:50:41;11.27;;;7.20;;
21148;SDS011;10732;51.472;6.466;2022-10-04T20:53:14;12.52;;;8.15;;
21148;SDS011;10732;51.472;6.466;2022-10-04T20:55:46;12.85;;;8.20;;
21148;SDS011;10732;51.472;6.466;2022-10-04T20:58:31;11.73;;;8.68;;
21148;SDS011;10732;51.472;6.466;2022-10-04T21:01:00;11.90;;;8.25;;
21148;SDS011;10732;51.472;6.466;2022-10-04T21:03:39;13.63;;;8.48;;
21148;SDS011;10732;51.472;6.466;2022-10-04T21:06:06;13.50;;;8.45;;
21148;SDS011;10732;51.472;6.466;2022-10-04T21:08:34;11.27;;;7.70;;
21148;SDS011;10732;51.472;6.466;2022-10-04T21:11:08;13.43;;;8.50;;
21148;SDS011;10732;51.472;6.466;2022-10-04T21:16:07;10.63;;;8.15;;
21148;SDS011;10732;51.472;6.466;2022-10-04T21:18:32;13.13;;;8.48;;
21148;SDS011;10732;51.472;6.466;2022-10-04T21:20:58;12.48;;;8.18;;
21148;SDS011;10732;51.472;6.466;2022-10-04T21:28:51;11.13;;;7.50;;
21148;SDS011;10732;51.472;6.466;2022-10-04T21:31:18;12.63;;;7.93;;
21148;SDS011;10732;51.472;6.466;2022-10-04T21:33:44;13.02;;;8.32;;
21148;SDS011;10732;51.472;6.466;2022-10-04T21:36:09;12.88;;;8.35;;
21148;SDS011;10732;51.472;6.466;2022-10-04T21:38:35;12.75;;;8.43;;
21148;SDS011;10732;51.472;6.466;2022-10-04T21:41:01;14.38;;;8.18;;
21148;SDS011;10732;51.472;6.466;2022-10-04T21:43:26;12.63;;;8.50;;
21148;SDS011;10732;51.472;6.466;2022-10-04T21:45:52;11.45;;;7.72;;
21148;SDS011;10732;51.472;6.466;2022-10-04T21:48:18;12.68;;;8.15;;
21148;SDS011;10732;51.472;6.466;2022-10-04T21:50:46;11.85;;;9.43;;
21148;SDS011;10732;51.472;6.466;2022-10-04T21:53:11;11.18;;;8.38;;
21148;SDS011;10732;51.472;6.466;2022-10-04T21:55:37;11.63;;;8.35;;
21148;SDS011;10732;51.472;6.466;2022-10-04T21:58:03;12.35;;;8.75;;
21148;SDS011;10732;51.472;6.466;2022-10-04T22:00:28;13.23;;;8.68;;
21148;SDS011;10732;51.472;6.466;2022-10-04T22:02:54;14.45;;;8.85;;
21148;SDS011;10732;51.472;6.466;2022-10-04T22:05:19;16.02;;;8.68;;
21148;SDS011;10732;51.472;6.466;2022-10-04T22:07:45;15.73;;;9.70;;
21148;SDS011;10732;51.472;6.466;2022-10-04T22:10:11;17.33;;;9.68;;
21148;SDS011;10732;51.472;6.466;2022-10-04T22:12:37;11.32;;;9.32;;
21148;SDS011;10732;51.472;6.466;2022-10-04T22:15:03;12.15;;;8.80;;
21148;SDS011;10732;51.472;6.466;2022-10-04T22:17:29;13.48;;;9.15;;
21148;SDS011;10732;51.472;6.466;2022-10-04T22:19:54;12.13;;;8.48;;
21148;SDS011;10732;51.472;6.466;2022-10-04T22:22:20;15.85;;;9.40;;
21148;SDS011;10732;51.472;6.466;2022-10-04T22:24:45;15.13;;;9.35;;
21148;SDS011;10732;51.472;6.466;2022-10-04T22:27:15;13.32;;;8.48;;
21148;SDS011;10732;51.472;6.466;2022-10-04T22:29:43;14.63;;;9.38;;
21148;SDS011;10732;51.472;6.466;2022-10-04T22:32:13;14.98;;;9.07;;
21148;SDS011;10732;51.472;6.466;2022-10-04T22:34:45;18.05;;;9.57;;
21148;SDS011;10732;51.472;6.466;2022-10-04T22:37:10;15.15;;;9.60;;
21148;SDS011;10732;51.472;6.466;2022-10-04T22:39:36;12.95;;;9.18;;
21148;SDS011;10732;51.472;6.466;2022-10-04T22:42:02;14.70;;;9.30;;
21148;SDS011;10732;51.472;6.466;2022-10-04T22:44:28;14.68;;;9.23;;
21148;SDS011;10732;51.472;6.466;2022-10-04T22:46:58;15.57;;;9.27;;
21148;SDS011;10732;51.472;6.466;2022-10-04T22:49:29;13.43;;;9.45;;
21148;SDS011;10732;51.472;6.466;2022-10-04T22:51:57;14.45;;;8.85;;
21148;SDS011;10732;51.472;6.466;2022-10-04T22:54:25;14.68;;;8.48;;
21148;SDS011;10732;51.472;6.466;2022-10-04T22:56:55;12.43;;;8.70;;
21148;SDS011;10732;51.472;6.466;2022-10-04T22:59:22;11.35;;;8.38;;
21148;SDS011;10732;51.472;6.466;2022-10-04T23:01:57;11.02;;;7.85;;
21148;SDS011;10732;51.472;6.466;2022-10-04T23:04:24;11.57;;;7.88;;
21148;SDS011;10732;51.472;6.466;2022-10-04T23:06:51;12.82;;;8.27;;
21148;SDS011;10732;51.472;6.466;2022-10-04T23:09:17;10.40;;;7.78;;
21148;SDS011;10732;51.472;6.466;2022-10-04T23:11:43;10.77;;;7.97;;
21148;SDS011;10732;51.472;6.466;2022-10-04T23:14:09;14.68;;;8.18;;
21148;SDS011;10732;51.472;6.466;2022-10-04T23:16:36;15.45;;;9.00;;
21148;SDS011;10732;51.472;6.466;2022-10-04T23:21:36;13.13;;;8.50;;
21148;SDS011;10732;51.472;6.466;2022-10-04T23:24:19;11.30;;;7.72;;
21148;SDS011;10732;51.472;6.466;2022-10-04T23:26:47;12.32;;;8.88;;
21148;SDS011;10732;51.472;6.466;2022-10-04T23:29:17;11.93;;;8.63;;
21148;SDS011;10732;51.472;6.466;2022-10-04T23:31:47;9.82;;;7.93;;
21148;SDS011;10732;51.472;6.466;2022-10-04T23:34:32;11.20;;;8.20;;
21148;SDS011;10732;51.472;6.466;2022-10-04T23:37:08;12.73;;;8.02;;
21148;SDS011;10732;51.472;6.466;2022-10-04T23:39:44;11.30;;;8.60;;
21148;SDS011;10732;51.472;6.466;2022-10-04T23:42:31;11.32;;;8.07;;
21148;SDS011;10732;51.472;6.466;2022-10-04T23:44:57;13.15;;;8.73;;
21148;SDS011;10732;51.472;6.466;2022-10-04T23:47:26;12.02;;;8.13;;
21148;SDS011;10732;51.472;6.466;2022-10-04T23:49:57;11.13;;;8.88;;
21148;SDS011;10732;51.472;6.466;2022-10-04T23:52:24;11.88;;;8.65;;
21148;SDS011;10732;51.472;6.466;2022-10-04T23:54:55;13.30;;;9.70;;
21148;SDS011;10732;51.472;6.466;2022-10-04T23:57:25;13.13;;;8.65;;
21148;SDS011;10732;51.472;6.466;2022-10-04T23:59:52;14.55;;;9.30;;
